Time;durP1;ratioP1;P1;durP2;ratioP2;P2;SDS_P1;SDS_P2;PMS_P1;PMS_P2;Temp;Humidity;BMP_temperature;BMP_pressure;BME280_temperature;BME280_humidity;BME280_pressure;Samples;Min_cycle;Max_cycle;Signal;HPM_P1;HPM_P2
2021/11/22 00:00:58;;;;;;;0.13;0.10;;;;;;;;;;4129998;28;20441;-47
2021/11/22 00:02:59;;;;;;;0.00;0.00;;;;;;;;;;4162589;28;20062;-48
2021/11/22 00:05:01;;;;;;;0.00;0.00;;;;;;;;;;4180281;28;20404;-48
2021/11/22 00:07:02;;;;;;;0.00;0.00;;;;;;;;;;4179147;28;20053;-48
2021/11/22 00:09:03;;;;;;;0.00;0.00;;;;;;;;;;4179637;28;20071;-52
2021/11/22 00:11:05;;;;;;;0.10;0.10;;;;;;;;;;4129859;28;20089;-50
2021/11/22 00:13:06;;;;;;;0.55;0.10;;;;;;;;;;4179940;28;20052;-51
2021/11/22 00:15:09;;;;;;;1.27;0.10;;;;;;;;;;4180160;28;20493;-52
2021/11/22 00:17:10;;;;;;;0.50;0.10;;;;;;;;;;4180299;28;20053;-46
2021/11/22 00:19:12;;;;;;;0.05;0.00;;;;;;;;;;4179592;28;20056;-50
2021/11/22 00:21:14;;;;;;;0.15;0.10;;;;;;;;;;4179870;28;20060;-47
2021/11/22 00:23:15;;;;;;;0.15;0.10;;;;;;;;;;4179373;28;20053;-50
2021/11/22 00:25:17;;;;;;;0.10;0.10;;;;;;;;;;4180093;28;20064;-49
2021/11/22 00:27:18;;;;;;;0.00;0.00;;;;;;;;;;4179982;28;20057;-49
2021/11/22 00:29:19;;;;;;;0.10;0.10;;;;;;;;;;4146004;28;20514;-50
2021/11/22 00:31:53;;;;;;;0.10;0.10;;;;;;;;;;4162254;28;20544;-51
2021/11/22 00:34:08;;;;;;;0.10;0.10;;;;;;;;;;4162360;28;20107;-47
2021/11/22 00:36:23;;;;;;;0.00;0.00;;;;;;;;;;4147845;28;20053;-52
2021/11/22 00:38:24;;;;;;;0.10;0.10;;;;;;;;;;4179309;28;20489;-49
2021/11/22 00:40:25;;;;;;;0.00;0.00;;;;;;;;;;4180229;28;20057;-50
2021/11/22 00:42:27;;;;;;;1.33;0.10;;;;;;;;;;4179749;28;20394;-51
2021/11/22 00:44:28;;;;;;;0.30;0.00;;;;;;;;;;4180048;28;20106;-47
2021/11/22 00:46:29;;;;;;;0.47;0.00;;;;;;;;;;4179698;28;20053;-51
2021/11/22 00:48:31;;;;;;;0.10;0.10;;;;;;;;;;4180005;28;20110;-51
2021/11/22 00:50:34;;;;;;;0.10;0.10;;;;;;;;;;4180076;28;20103;-48
2021/11/22 00:52:36;;;;;;;0.10;0.03;;;;;;;;;;4161588;28;20078;-48
2021/11/22 00:54:37;;;;;;;0.13;0.10;;;;;;;;;;4179707;28;20057;-48
2021/11/22 00:56:38;;;;;;;0.00;0.00;;;;;;;;;;4162046;28;20484;-48
2021/11/22 00:58:39;;;;;;;0.03;0.00;;;;;;;;;;4179727;28;20103;-50
2021/11/22 01:00:41;;;;;;;0.20;0.00;;;;;;;;;;4179520;28;20503;-50
2021/11/22 01:02:43;;;;;;;0.00;0.00;;;;;;;;;;4179608;28;20053;-49
2021/11/22 01:04:44;;;;;;;0.17;0.00;;;;;;;;;;4161960;28;20062;-52
2021/11/22 01:06:46;;;;;;;0.00;0.00;;;;;;;;;;4161998;28;20065;-48
2021/11/22 01:08:47;;;;;;;0.00;0.00;;;;;;;;;;4179292;28;20103;-49
2021/11/22 01:10:48;;;;;;;0.25;0.10;;;;;;;;;;4179755;28;20452;-49
2021/11/22 01:12:50;;;;;;;0.10;0.08;;;;;;;;;;4162089;28;20115;-52
2021/11/22 01:14:51;;;;;;;0.43;0.00;;;;;;;;;;4179712;28;20057;-47
2021/11/22 01:16:53;;;;;;;0.00;0.00;;;;;;;;;;4179568;28;20064;-51
2021/11/22 01:18:54;;;;;;;0.38;0.00;;;;;;;;;;4161745;28;20057;-48
2021/11/22 01:20:55;;;;;;;0.00;0.00;;;;;;;;;;4179604;28;20048;-48
2021/11/22 01:23:09;;;;;;;0.43;0.00;;;;;;;;;;4179042;28;20118;-52
2021/11/22 01:25:11;;;;;;;0.00;0.00;;;;;;;;;;4179609;28;20094;-49
2021/11/22 01:27:14;;;;;;;0.22;0.10;;;;;;;;;;4179589;28;20512;-52
2021/11/22 01:29:15;;;;;;;0.00;0.00;;;;;;;;;;4179557;28;20057;-51
2021/11/22 01:31:16;;;;;;;0.10;0.10;;;;;;;;;;4181662;28;20065;-48
2021/11/22 01:33:18;;;;;;;0.30;0.10;;;;;;;;;;4182328;28;20438;-50
2021/11/22 01:35:19;;;;;;;0.10;0.00;;;;;;;;;;4182362;28;20488;-50
2021/11/22 01:37:21;;;;;;;0.20;0.10;;;;;;;;;;4182420;28;20061;-53
2021/11/22 01:39:22;;;;;;;0.00;0.00;;;;;;;;;;4181889;28;20068;-50
2021/11/22 01:41:23;;;;;;;0.00;0.00;;;;;;;;;;4182446;28;20111;-49
2021/11/22 01:43:25;;;;;;;0.10;0.10;;;;;;;;;;4182139;28;20053;-49
2021/11/22 01:45:26;;;;;;;0.00;0.00;;;;;;;;;;4164576;28;20053;-47
2021/11/22 01:47:27;;;;;;;0.10;0.10;;;;;;;;;;4182355;28;20053;-48
2021/11/22 01:49:28;;;;;;;0.10;0.00;;;;;;;;;;4182505;28;20103;-49
2021/11/22 01:51:31;;;;;;;0.00;0.00;;;;;;;;;;4182096;28;20393;-48
2021/11/22 01:53:32;;;;;;;0.00;0.00;;;;;;;;;;4181733;28;20488;-49
2021/11/22 01:55:33;;;;;;;0.03;0.03;;;;;;;;;;4182176;28;20057;-49
2021/11/22 01:57:35;;;;;;;0.08;0.08;;;;;;;;;;4182032;28;20485;-48
2021/11/22 01:59:36;;;;;;;0.10;0.10;;;;;;;;;;4182033;28;20057;-50
2021/11/22 02:01:37;;;;;;;0.00;0.00;;;;;;;;;;4164406;28;20130;-50
2021/11/22 02:03:39;;;;;;;0.10;0.05;;;;;;;;;;4164355;28;20057;-48
2021/11/22 02:05:40;;;;;;;0.00;0.00;;;;;;;;;;4182375;28;20053;-50
2021/11/22 02:07:42;;;;;;;0.00;0.00;;;;;;;;;;4181705;28;20053;-54
2021/11/22 02:09:43;;;;;;;0.00;0.00;;;;;;;;;;4182217;28;20112;-51
2021/11/22 02:11:45;;;;;;;0.08;0.00;;;;;;;;;;4181965;28;20052;-49
2021/11/22 02:13:46;;;;;;;0.38;0.00;;;;;;;;;;4181906;28;20489;-49
2021/11/22 02:15:47;;;;;;;0.10;0.10;;;;;;;;;;4181864;28;20134;-50
2021/11/22 02:17:50;;;;;;;0.00;0.00;;;;;;;;;;4181895;28;20060;-50
2021/11/22 02:20:03;;;;;;;0.00;0.00;;;;;;;;;;4182162;28;20101;-52
2021/11/22 02:22:05;;;;;;;0.28;0.08;;;;;;;;;;4163743;28;20057;-50
2021/11/22 02:24:07;;;;;;;0.10;0.00;;;;;;;;;;4181300;28;20073;-50
2021/11/22 02:26:08;;;;;;;0.13;0.13;;;;;;;;;;4181967;28;20056;-52
2021/11/22 02:28:11;;;;;;;0.10;0.10;;;;;;;;;;4181487;28;20073;-48
2021/11/22 02:30:14;;;;;;;0.00;0.00;;;;;;;;;;4164092;28;20057;-48
2021/11/22 02:32:15;;;;;;;1.00;0.10;;;;;;;;;;4163885;28;20054;-49
2021/11/22 02:34:17;;;;;;;0.00;0.00;;;;;;;;;;4147454;28;20494;-47
2021/11/22 02:36:18;;;;;;;0.00;0.00;;;;;;;;;;4181915;28;20056;-52
2021/11/22 02:38:21;;;;;;;0.10;0.10;;;;;;;;;;4163432;28;20068;-51
2021/11/22 02:40:22;;;;;;;0.00;0.00;;;;;;;;;;4181766;28;20080;-50
2021/11/22 02:42:23;;;;;;;0.10;0.10;;;;;;;;;;4163339;28;20425;-50
2021/11/22 02:44:25;;;;;;;0.10;0.00;;;;;;;;;;4181577;28;20106;-51
2021/11/22 02:46:26;;;;;;;0.00;0.00;;;;;;;;;;4181368;28;20056;-49
2021/11/22 02:48:27;;;;;;;0.00;0.00;;;;;;;;;;4181305;28;20485;-51
2021/11/22 02:50:28;;;;;;;0.00;0.00;;;;;;;;;;4181514;28;20053;-46
2021/11/22 02:52:29;;;;;;;0.00;0.00;;;;;;;;;;4181214;28;20053;-50
2021/11/22 02:54:30;;;;;;;0.00;0.00;;;;;;;;;;4163178;28;20057;-52
2021/11/22 02:56:33;;;;;;;0.00;0.00;;;;;;;;;;4163560;28;20124;-52
2021/11/22 02:58:37;;;;;;;0.00;0.00;;;;;;;;;;4181043;28;20554;-50
2021/11/22 03:00:38;;;;;;;0.10;0.00;;;;;;;;;;4181322;28;20056;-49
2021/11/22 03:02:41;;;;;;;0.15;0.10;;;;;;;;;;4181090;28;20102;-50
2021/11/22 03:04:43;;;;;;;0.47;0.10;;;;;;;;;;4180924;28;20389;-47
2021/11/22 03:06:45;;;;;;;0.08;0.00;;;;;;;;;;4181093;28;20057;-49
2021/11/22 03:08:47;;;;;;;0.08;0.00;;;;;;;;;;4180719;28;20061;-49
2021/11/22 03:10:48;;;;;;;0.08;0.08;;;;;;;;;;4180866;28;20390;-49
2021/11/22 03:12:49;;;;;;;0.22;0.10;;;;;;;;;;4180925;28;20061;-50
2021/11/22 03:14:51;;;;;;;0.08;0.08;;;;;;;;;;4180945;28;20057;-49
2021/11/22 03:16:54;;;;;;;0.10;0.00;;;;;;;;;;4163263;28;20331;-51
2021/11/22 03:18:55;;;;;;;0.10;0.10;;;;;;;;;;4180826;28;20053;-47
2021/11/22 03:20:57;;;;;;;0.05;0.00;;;;;;;;;;4180439;28;20347;-48
2021/11/22 03:22:58;;;;;;;0.10;0.10;;;;;;;;;;4180519;28;20049;-48
2021/11/22 03:25:01;;;;;;;0.10;0.00;;;;;;;;;;4163202;28;20057;-52
2021/11/22 03:27:02;;;;;;;0.10;0.10;;;;;;;;;;4180752;28;20053;-48
2021/11/22 03:29:04;;;;;;;0.10;0.10;;;;;;;;;;4180542;28;20061;-50
2021/11/22 03:31:05;;;;;;;0.10;0.10;;;;;;;;;;4180682;28;20492;-48
2021/11/22 03:33:06;;;;;;;0.38;0.00;;;;;;;;;;4162743;28;20053;-50
2021/11/22 03:35:09;;;;;;;0.10;0.10;;;;;;;;;;4162924;28;20107;-47
2021/11/22 03:37:10;;;;;;;0.00;0.00;;;;;;;;;;4180863;28;20056;-48
2021/11/22 03:39:25;;;;;;;0.10;0.05;;;;;;;;;;4162499;28;20108;-49
2021/11/22 03:41:28;;;;;;;0.00;0.00;;;;;;;;;;4180681;28;20061;-49
2021/11/22 03:43:45;;;;;;;0.10;0.00;;;;;;;;;;4180547;28;20445;-50
2021/11/22 03:45:47;;;;;;;0.00;0.00;;;;;;;;;;4180675;28;20052;-52
2021/11/22 03:47:48;;;;;;;0.00;0.00;;;;;;;;;;4180607;28;20061;-46
2021/11/22 03:49:49;;;;;;;0.20;0.00;;;;;;;;;;4162969;28;20115;-48
2021/11/22 03:51:51;;;;;;;0.00;0.00;;;;;;;;;;4145858;28;20061;-50
2021/11/22 03:53:52;;;;;;;0.00;0.00;;;;;;;;;;4179370;28;20056;-49
2021/11/22 03:55:53;;;;;;;0.08;0.03;;;;;;;;;;4180580;28;20075;-50
2021/11/22 03:57:54;;;;;;;0.28;0.00;;;;;;;;;;4162568;28;20053;-52
2021/11/22 03:59:56;;;;;;;0.20;0.08;;;;;;;;;;4162467;28;20057;-49
2021/11/22 04:01:57;;;;;;;0.10;0.08;;;;;;;;;;4162493;28;20498;-49
2021/11/22 04:03:59;;;;;;;0.13;0.00;;;;;;;;;;4180159;28;20493;-48
2021/11/22 04:06:01;;;;;;;0.00;0.00;;;;;;;;;;4180186;28;20079;-48
2021/11/22 04:08:02;;;;;;;0.00;0.00;;;;;;;;;;4179886;28;20048;-50
2021/11/22 04:10:04;;;;;;;0.03;0.00;;;;;;;;;;4180215;28;20052;-48
2021/11/22 04:12:05;;;;;;;0.10;0.00;;;;;;;;;;4180099;28;20057;-48
2021/11/22 04:14:07;;;;;;;0.00;0.00;;;;;;;;;;4180224;28;20107;-50
2021/11/22 04:16:08;;;;;;;0.08;0.03;;;;;;;;;;4180078;28;20382;-48
2021/11/22 04:18:09;;;;;;;0.00;0.00;;;;;;;;;;4176038;28;20046;-50
2021/11/22 04:20:12;;;;;;;0.15;0.08;;;;;;;;;;4163785;28;20053;-50
2021/11/22 04:22:14;;;;;;;0.00;0.00;;;;;;;;;;4163416;28;20049;-46
2021/11/22 04:24:15;;;;;;;0.10;0.10;;;;;;;;;;4163081;28;20403;-47
2021/11/22 04:26:18;;;;;;;0.10;0.10;;;;;;;;;;4163574;28;20417;-47
2021/11/22 04:28:19;;;;;;;0.08;0.08;;;;;;;;;;4163727;28;20045;-50
2021/11/22 04:30:20;;;;;;;0.00;0.00;;;;;;;;;;4163626;28;20092;-51
2021/11/22 04:32:21;;;;;;;0.00;0.00;;;;;;;;;;4163806;28;20095;-49
2021/11/22 04:34:22;;;;;;;0.00;0.00;;;;;;;;;;4163377;28;20456;-46
2021/11/22 04:36:24;;;;;;;0.10;0.00;;;;;;;;;;4163464;28;20056;-50
2021/11/22 04:38:25;;;;;;;0.00;0.00;;;;;;;;;;4162925;28;20331;-50
2021/11/22 04:40:26;;;;;;;0.00;0.00;;;;;;;;;;4163504;28;20061;-48
2021/11/22 04:42:27;;;;;;;0.00;0.00;;;;;;;;;;4163370;28;20157;-49
2021/11/22 04:44:28;;;;;;;0.10;0.00;;;;;;;;;;4163280;28;20494;-49
2021/11/22 04:46:30;;;;;;;0.00;0.00;;;;;;;;;;4163313;28;20136;-50
2021/11/22 04:48:33;;;;;;;0.00;0.00;;;;;;;;;;4163392;28;20084;-49
2021/11/22 04:50:36;;;;;;;0.13;0.10;;;;;;;;;;4163299;28;20502;-49
2021/11/22 04:52:37;;;;;;;0.00;0.00;;;;;;;;;;4162921;28;20095;-48
2021/11/22 04:54:39;;;;;;;0.10;0.10;;;;;;;;;;4163415;28;20057;-47
2021/11/22 04:56:40;;;;;;;0.10;0.10;;;;;;;;;;4163362;28;20065;-51
2021/11/22 04:58:41;;;;;;;0.10;0.10;;;;;;;;;;4163445;28;20057;-50
2021/11/22 05:00:42;;;;;;;0.45;0.10;;;;;;;;;;4163320;28;20493;-50
2021/11/22 05:02:45;;;;;;;0.10;0.10;;;;;;;;;;4163123;28;20076;-47
2021/11/22 05:04:47;;;;;;;0.10;0.10;;;;;;;;;;4145670;28;20127;-51
2021/11/22 05:06:51;;;;;;;0.00;0.00;;;;;;;;;;4166536;28;20061;-50
2021/11/22 05:08:52;;;;;;;0.10;0.10;;;;;;;;;;4165773;28;20103;-48
2021/11/22 05:10:53;;;;;;;0.10;0.05;;;;;;;;;;4166493;28;20327;-52
2021/11/22 05:12:54;;;;;;;0.57;0.10;;;;;;;;;;4166309;28;20111;-53
2021/11/22 05:14:56;;;;;;;0.63;0.30;;;;;;;;;;4166803;28;20072;-51
2021/11/22 05:16:57;;;;;;;0.15;0.10;;;;;;;;;;4170756;28;20493;-51
2021/11/22 05:18:58;;;;;;;1.33;0.10;;;;;;;;;;4182914;28;20052;-52
2021/11/22 05:20:59;;;;;;;0.17;0.10;;;;;;;;;;4183304;28;20590;-49
2021/11/22 05:23:00;;;;;;;1.05;0.10;;;;;;;;;;4199030;28;20057;-47
2021/11/22 05:25:03;;;;;;;0.20;0.20;;;;;;;;;;4199536;28;20053;-49
2021/11/22 05:27:05;;;;;;;0.15;0.05;;;;;;;;;;4199263;28;20068;-51
2021/11/22 05:29:08;;;;;;;0.85;0.20;;;;;;;;;;4199019;28;20052;-51
2021/11/22 05:31:10;;;;;;;0.30;0.10;;;;;;;;;;4199233;28;20061;-51
2021/11/22 05:33:11;;;;;;;0.22;0.10;;;;;;;;;;4198942;28;20437;-52
2021/11/22 05:35:12;;;;;;;0.08;0.08;;;;;;;;;;4198839;28;20049;-53
2021/11/22 05:37:14;;;;;;;1.42;0.20;;;;;;;;;;4199025;28;20142;-52
2021/11/22 05:39:15;;;;;;;1.17;0.60;;;;;;;;;;4198484;28;20086;-50
2021/11/22 05:41:16;;;;;;;0.38;0.22;;;;;;;;;;4181376;28;20178;-53
2021/11/22 05:43:17;;;;;;;0.60;0.17;;;;;;;;;;4180929;28;20479;-52
2021/11/22 05:45:19;;;;;;;0.30;0.10;;;;;;;;;;4199126;28;20064;-49
2021/11/22 05:47:20;;;;;;;0.75;0.10;;;;;;;;;;4198805;28;20101;-51
2021/11/22 05:49:22;;;;;;;1.27;0.10;;;;;;;;;;4198814;28;20098;-50
2021/11/22 05:51:25;;;;;;;0.28;0.10;;;;;;;;;;4198864;28;20057;-50
2021/11/22 05:53:32;;;;;;;0.20;0.10;;;;;;;;;;4198233;28;20056;-49
2021/11/22 05:55:41;;;;;;;0.90;0.20;;;;;;;;;;4198972;28;20122;-52
2021/11/22 05:57:42;;;;;;;0.28;0.20;;;;;;;;;;4198859;28;20060;-50
2021/11/22 05:59:44;;;;;;;0.30;0.10;;;;;;;;;;4198540;28;20110;-49
2021/11/22 06:01:45;;;;;;;0.40;0.20;;;;;;;;;;4180742;28;20049;-47
2021/11/22 06:03:47;;;;;;;0.60;0.20;;;;;;;;;;4198316;28;20499;-49
2021/11/22 06:05:48;;;;;;;0.85;0.22;;;;;;;;;;4198451;28;20060;-48
2021/11/22 06:07:49;;;;;;;0.40;0.30;;;;;;;;;;4197988;28;20853;-48
2021/11/22 06:09:52;;;;;;;0.68;0.20;;;;;;;;;;4198857;28;20067;-48
2021/11/22 06:11:53;;;;;;;0.52;0.13;;;;;;;;;;4198466;28;20060;-49
2021/11/22 06:13:54;;;;;;;0.28;0.20;;;;;;;;;;4198595;28;20071;-49
2021/11/22 06:15:55;;;;;;;0.10;0.10;;;;;;;;;;4197972;28;20052;-48
2021/11/22 06:17:56;;;;;;;0.70;0.20;;;;;;;;;;4198477;28;20067;-52
2021/11/22 06:19:57;;;;;;;0.32;0.22;;;;;;;;;;4198130;28;20056;-49
2021/11/22 06:21:59;;;;;;;0.65;0.30;;;;;;;;;;4190466;28;20060;-48
2021/11/22 06:24:03;;;;;;;0.10;0.10;;;;;;;;;;4180588;28;20532;-52
2021/11/22 06:26:05;;;;;;;0.28;0.15;;;;;;;;;;4171887;28;20152;-55
2021/11/22 06:28:06;;;;;;;0.13;0.10;;;;;;;;;;4185283;28;20065;-48
2021/11/22 06:30:07;;;;;;;0.28;0.20;;;;;;;;;;4152700;28;20161;-46
2021/11/22 06:32:12;;;;;;;0.43;0.20;;;;;;;;;;4154439;28;20053;-51
2021/11/22 06:34:13;;;;;;;0.38;0.10;;;;;;;;;;4181123;28;20060;-48
2021/11/22 06:36:14;;;;;;;0.30;0.10;;;;;;;;;;4181630;28;20088;-50
2021/11/22 06:38:15;;;;;;;0.10;0.10;;;;;;;;;;4178079;28;20057;-48
2021/11/22 06:40:18;;;;;;;0.20;0.20;;;;;;;;;;4159214;28;20152;-48
2021/11/22 06:42:20;;;;;;;0.13;0.10;;;;;;;;;;4169497;28;20095;-48
2021/11/22 06:44:21;;;;;;;0.35;0.20;;;;;;;;;;4170078;28;20056;-48
2021/11/22 06:46:22;;;;;;;0.30;0.10;;;;;;;;;;4171006;28;20481;-46
2021/11/22 06:48:23;;;;;;;0.13;0.10;;;;;;;;;;4172438;28;20114;-49
2021/11/22 06:50:25;;;;;;;0.30;0.10;;;;;;;;;;4172532;28;20065;-48
2021/11/22 06:52:26;;;;;;;0.65;0.20;;;;;;;;;;4171992;28;20060;-48
2021/11/22 06:54:27;;;;;;;1.00;0.30;;;;;;;;;;4172626;28;20190;-52
2021/11/22 06:56:29;;;;;;;0.57;0.10;;;;;;;;;;4179119;28;20060;-48
2021/11/22 06:58:30;;;;;;;0.15;0.10;;;;;;;;;;4177109;28;20091;-47
2021/11/22 07:00:31;;;;;;;0.60;0.50;;;;;;;;;;4172013;28;20058;-47
2021/11/22 07:02:32;;;;;;;1.00;0.20;;;;;;;;;;4168459;28;20500;-49
2021/11/22 07:04:34;;;;;;;0.75;0.20;;;;;;;;;;4143024;28;20053;-49
2021/11/22 07:06:35;;;;;;;0.75;0.20;;;;;;;;;;4164915;28;20115;-48
2021/11/22 07:08:37;;;;;;;0.75;0.20;;;;;;;;;;4154728;28;20054;-49
2021/11/22 07:10:38;;;;;;;0.13;0.13;;;;;;;;;;4170013;28;20058;-48
2021/11/22 07:12:39;;;;;;;2.65;0.10;;;;;;;;;;4161969;28;20057;-47
2021/11/22 07:14:41;;;;;;;0.10;0.10;;;;;;;;;;4172723;28;20049;-47
2021/11/22 07:16:42;;;;;;;0.47;0.30;;;;;;;;;;4167994;28;20057;-48
2021/11/22 07:18:44;;;;;;;0.43;0.25;;;;;;;;;;4169619;28;20063;-46
2021/11/22 07:20:47;;;;;;;0.90;0.20;;;;;;;;;;4164524;28;20126;-49
2021/11/22 07:22:48;;;;;;;0.47;0.20;;;;;;;;;;4168824;28;20057;-46
2021/11/22 07:24:49;;;;;;;0.22;0.10;;;;;;;;;;4164554;28;20370;-48
2021/11/22 07:26:50;;;;;;;0.52;0.17;;;;;;;;;;4165279;28;20061;-50
2021/11/22 07:28:51;;;;;;;0.20;0.10;;;;;;;;;;4165579;28;20442;-50
2021/11/22 07:30:53;;;;;;;0.35;0.10;;;;;;;;;;4162552;28;20049;-54
2021/11/22 07:32:54;;;;;;;2.88;0.30;;;;;;;;;;4162871;28;20045;-52
2021/11/22 07:34:56;;;;;;;0.77;0.17;;;;;;;;;;4137252;28;20076;-49
2021/11/22 07:36:57;;;;;;;0.65;0.20;;;;;;;;;;4162565;28;20076;-52
2021/11/22 07:38:58;;;;;;;0.10;0.10;;;;;;;;;;4169269;28;20509;-48
2021/11/22 07:40:59;;;;;;;2.38;0.55;;;;;;;;;;4162991;28;20073;-52
2021/11/22 07:43:01;;;;;;;0.90;0.20;;;;;;;;;;4159665;28;20113;-51
2021/11/22 07:45:02;;;;;;;0.70;0.15;;;;;;;;;;4167985;28;20053;-49
2021/11/22 07:47:04;;;;;;;1.05;0.20;;;;;;;;;;4160449;28;20056;-52
2021/11/22 07:49:06;;;;;;;0.10;0.10;;;;;;;;;;4159763;28;20129;-53
2021/11/22 07:51:07;;;;;;;1.75;0.30;;;;;;;;;;4150917;28;20053;-51
2021/11/22 07:53:08;;;;;;;0.22;0.10;;;;;;;;;;4167845;28;20417;-48
2021/11/22 07:55:10;;;;;;;0.28;0.10;;;;;;;;;;4164010;28;20098;-48
2021/11/22 07:57:11;;;;;;;0.60;0.20;;;;;;;;;;4167464;28;20056;-48
2021/11/22 07:59:12;;;;;;;0.38;0.20;;;;;;;;;;4157562;28;20272;-52
2021/11/22 08:01:14;;;;;;;0.80;0.20;;;;;;;;;;4149075;28;21139;-51
2021/11/22 08:03:15;;;;;;;0.47;0.20;;;;;;;;;;4145036;28;21295;-50
2021/11/22 08:05:16;;;;;;;0.38;0.10;;;;;;;;;;4153770;28;20053;-50
2021/11/22 08:07:20;;;;;;;0.40;0.10;;;;;;;;;;4153834;28;20162;-52
2021/11/22 08:09:28;;;;;;;0.20;0.20;;;;;;;;;;4161310;28;20061;-50
2021/11/22 08:11:32;;;;;;;0.60;0.17;;;;;;;;;;4149628;28;20057;-49
2021/11/22 08:13:34;;;;;;;1.95;0.20;;;;;;;;;;4167440;28;20057;-47
2021/11/22 08:15:37;;;;;;;0.17;0.10;;;;;;;;;;4156070;28;20138;-47
2021/11/22 08:17:40;;;;;;;3.35;0.80;;;;;;;;;;4151485;28;20061;-47
2021/11/22 08:19:41;;;;;;;0.68;0.20;;;;;;;;;;4156707;28;20064;-46
2021/11/22 08:21:42;;;;;;;0.50;0.17;;;;;;;;;;4149745;28;20053;-48
2021/11/22 08:23:43;;;;;;;0.93;0.17;;;;;;;;;;4162059;28;20587;-50
2021/11/22 08:25:44;;;;;;;0.85;0.35;;;;;;;;;;4156938;28;20053;-48
2021/11/22 08:27:46;;;;;;;0.63;0.25;;;;;;;;;;4155942;28;20057;-47
2021/11/22 08:29:48;;;;;;;1.05;0.20;;;;;;;;;;4159720;28;20054;-48
2021/11/22 08:31:50;;;;;;;1.88;0.30;;;;;;;;;;4145301;28;20115;-46
2021/11/22 08:33:51;;;;;;;0.20;0.20;;;;;;;;;;4157121;28;20060;-50
2021/11/22 08:35:52;;;;;;;2.05;0.13;;;;;;;;;;4158063;28;20053;-49
2021/11/22 08:37:53;;;;;;;0.63;0.22;;;;;;;;;;4158613;28;20479;-50
2021/11/22 08:39:55;;;;;;;0.52;0.20;;;;;;;;;;4162454;28;20080;-50
2021/11/22 08:41:56;;;;;;;0.20;0.20;;;;;;;;;;4144341;28;20057;-50
2021/11/22 08:43:57;;;;;;;1.65;0.32;;;;;;;;;;4168801;28;20115;-51
2021/11/22 08:45:59;;;;;;;1.33;0.20;;;;;;;;;;4168197;28;20075;-50
2021/11/22 08:48:01;;;;;;;0.60;0.20;;;;;;;;;;4163141;28;20119;-47
2021/11/22 08:50:05;;;;;;;0.80;0.20;;;;;;;;;;4160918;28;20114;-50
2021/11/22 08:52:06;;;;;;;0.80;0.22;;;;;;;;;;4150680;28;20075;-48
2021/11/22 08:54:08;;;;;;;0.63;0.20;;;;;;;;;;4164516;28;20412;-49
2021/11/22 08:56:10;;;;;;;0.45;0.10;;;;;;;;;;4166887;28;20057;-49
2021/11/22 08:58:11;;;;;;;1.00;0.20;;;;;;;;;;4161890;28;20497;-51
2021/11/22 09:00:16;;;;;;;0.80;0.20;;;;;;;;;;4156398;28;20057;-48
2021/11/22 09:02:21;;;;;;;0.43;0.15;;;;;;;;;;4135900;28;20061;-49
2021/11/22 09:04:24;;;;;;;0.63;0.20;;;;;;;;;;4144896;28;20134;-47
2021/11/22 09:06:26;;;;;;;0.47;0.20;;;;;;;;;;4138901;28;20114;-48
2021/11/22 09:08:27;;;;;;;1.17;0.28;;;;;;;;;;4159091;28;20107;-51
2021/11/22 09:10:29;;;;;;;1.60;0.30;;;;;;;;;;4166900;28;20061;-46
2021/11/22 09:12:30;;;;;;;1.63;0.40;;;;;;;;;;4164972;28;20406;-45
2021/11/22 09:14:31;;;;;;;0.22;0.20;;;;;;;;;;4165218;28;20118;-47
2021/11/22 09:16:32;;;;;;;1.38;0.38;;;;;;;;;;4164056;28;20446;-51
2021/11/22 09:18:34;;;;;;;0.30;0.10;;;;;;;;;;4160651;28;20058;-50
2021/11/22 09:20:35;;;;;;;0.90;0.30;;;;;;;;;;4166602;28;20463;-50
2021/11/22 09:22:37;;;;;;;1.35;0.20;;;;;;;;;;4145557;28;20062;-51
2021/11/22 09:24:39;;;;;;;0.50;0.20;;;;;;;;;;4163643;28;20464;-44
2021/11/22 09:26:41;;;;;;;0.13;0.10;;;;;;;;;;4163907;28;20133;-45
2021/11/22 09:28:45;;;;;;;0.47;0.15;;;;;;;;;;4165307;28;20118;-46
2021/11/22 09:30:47;;;;;;;0.38;0.20;;;;;;;;;;4163488;28;20168;-45
2021/11/22 09:32:48;;;;;;;1.08;0.20;;;;;;;;;;4157067;28;20558;-48
2021/11/22 09:34:49;;;;;;;1.60;0.15;;;;;;;;;;4168490;28;20097;-46
2021/11/22 09:36:50;;;;;;;0.30;0.20;;;;;;;;;;4162831;28;20286;-51
2021/11/22 09:38:52;;;;;;;1.25;0.20;;;;;;;;;;4155210;28;21852;-50
2021/11/22 09:40:54;;;;;;;2.28;0.20;;;;;;;;;;4161784;28;20488;-51
2021/11/22 09:42:56;;;;;;;0.70;0.17;;;;;;;;;;4145607;28;20054;-48
2021/11/22 09:44:58;;;;;;;0.40;0.20;;;;;;;;;;4169677;28;20114;-44
2021/11/22 09:46:59;;;;;;;1.30;0.30;;;;;;;;;;4151835;28;20092;-44
2021/11/22 09:49:01;;;;;;;0.45;0.13;;;;;;;;;;4164621;28;20057;-48
2021/11/22 09:51:02;;;;;;;0.98;0.30;;;;;;;;;;4166395;28;20500;-49
2021/11/22 09:53:04;;;;;;;2.10;0.20;;;;;;;;;;4164698;28;20053;-46
2021/11/22 09:55:06;;;;;;;0.63;0.20;;;;;;;;;;4161760;28;20548;-49
2021/11/22 09:57:08;;;;;;;0.50;0.25;;;;;;;;;;4154224;28;20065;-48
2021/11/22 09:59:09;;;;;;;1.80;0.20;;;;;;;;;;4155645;28;20408;-51
2021/11/22 10:01:14;;;;;;;0.57;0.30;;;;;;;;;;4150967;28;20065;-49
2021/11/22 10:03:22;;;;;;;1.17;0.32;;;;;;;;;;4150573;28;20689;-48
2021/11/22 10:05:30;;;;;;;1.23;0.20;;;;;;;;;;4142240;28;20064;-51
2021/11/22 10:07:34;;;;;;;1.02;0.20;;;;;;;;;;4158297;28;20084;-49
2021/11/22 10:09:40;;;;;;;0.80;0.20;;;;;;;;;;4161714;28;20049;-51
2021/11/22 10:11:54;;;;;;;3.25;0.20;;;;;;;;;;4163997;28;20125;-50
2021/11/22 10:13:55;;;;;;;0.65;0.20;;;;;;;;;;4152527;28;20570;-50
2021/11/22 10:16:16;;;;;;;1.05;0.20;;;;;;;;;;4162170;28;20504;-48
2021/11/22 10:18:19;;;;;;;1.40;0.20;;;;;;;;;;4165359;28;20065;-45
2021/11/22 10:20:21;;;;;;;2.17;0.20;;;;;;;;;;4163227;28;20058;-49
2021/11/22 10:22:23;;;;;;;1.02;0.40;;;;;;;;;;4162163;28;20052;-46
2021/11/22 10:24:24;;;;;;;0.50;0.17;;;;;;;;;;4160813;28;20127;-45
2021/11/22 10:26:25;;;;;;;1.65;0.30;;;;;;;;;;4150519;28;20050;-49
2021/11/22 10:28:32;;;;;;;0.40;0.30;;;;;;;;;;4167332;28;20060;-46
2021/11/22 10:30:36;;;;;;;0.82;0.20;;;;;;;;;;4167105;28;20122;-45
2021/11/22 10:32:38;;;;;;;0.20;0.15;;;;;;;;;;4142015;28;21230;-50
2021/11/22 10:34:39;;;;;;;0.40;0.25;;;;;;;;;;4150189;28;20057;-49
2021/11/22 10:36:40;;;;;;;1.88;0.20;;;;;;;;;;4159598;28;20115;-44
2021/11/22 10:38:48;;;;;;;0.52;0.28;;;;;;;;;;4161358;28;20131;-48
2021/11/22 10:40:54;;;;;;;2.20;0.20;;;;;;;;;;4165171;28;21022;-48
2021/11/22 10:42:56;;;;;;;0.73;0.20;;;;;;;;;;4167190;28;20333;-49
2021/11/22 10:44:58;;;;;;;1.73;0.20;;;;;;;;;;4166497;28;20053;-47
2021/11/22 10:47:12;;;;;;;0.60;0.30;;;;;;;;;;4172114;28;20079;-43
2021/11/22 10:49:16;;;;;;;0.50;0.30;;;;;;;;;;4166108;28;20481;-48
2021/11/22 10:51:28;;;;;;;1.60;0.30;;;;;;;;;;4167019;28;20056;-50
2021/11/22 10:53:33;;;;;;;0.82;0.35;;;;;;;;;;4168954;28;20076;-45
2021/11/22 10:55:48;;;;;;;1.08;0.50;;;;;;;;;;4175083;28;20072;-48
2021/11/22 10:57:49;;;;;;;1.05;0.25;;;;;;;;;;4167932;28;20376;-53
2021/11/22 10:59:50;;;;;;;4.85;0.32;;;;;;;;;;4155793;28;20100;-46
2021/11/22 11:01:56;;;;;;;1.02;0.30;;;;;;;;;;4169420;28;20126;-50
2021/11/22 11:04:06;;;;;;;0.22;0.20;;;;;;;;;;4163456;28;20056;-48
2021/11/22 11:06:08;;;;;;;2.47;0.30;;;;;;;;;;4173236;28;20060;-45
2021/11/22 11:08:12;;;;;;;0.30;0.10;;;;;;;;;;4167003;28;20049;-50
2021/11/22 11:10:22;;;;;;;0.47;0.10;;;;;;;;;;4174986;28;20064;-45
2021/11/22 11:12:24;;;;;;;0.47;0.22;;;;;;;;;;4167855;28;20103;-49
2021/11/22 11:14:26;;;;;;;2.15;0.45;;;;;;;;;;4168371;28;20390;-53
2021/11/22 11:16:27;;;;;;;0.28;0.20;;;;;;;;;;4167623;28;20077;-50
2021/11/22 11:18:32;;;;;;;1.17;0.30;;;;;;;;;;4162934;28;20044;-49
2021/11/22 11:20:33;;;;;;;0.52;0.28;;;;;;;;;;4167937;28;20484;-52
2021/11/22 11:22:35;;;;;;;0.47;0.13;;;;;;;;;;4168815;28;20107;-48
2021/11/22 11:24:36;;;;;;;0.60;0.30;;;;;;;;;;4157912;28;20053;-49
2021/11/22 11:26:38;;;;;;;0.57;0.30;;;;;;;;;;4167908;28;20068;-48
2021/11/22 11:28:39;;;;;;;3.33;0.30;;;;;;;;;;4166655;28;20052;-51
2021/11/22 11:30:40;;;;;;;0.68;0.28;;;;;;;;;;4165581;28;20111;-49
2021/11/22 11:32:42;;;;;;;0.95;0.32;;;;;;;;;;4161617;28;20414;-49
2021/11/22 11:34:45;;;;;;;1.20;0.40;;;;;;;;;;4166951;28;20052;-47
2021/11/22 11:37:11;;;;;;;2.05;0.28;;;;;;;;;;4168082;28;20405;-48
2021/11/22 11:39:40;;;;;;;0.93;0.30;;;;;;;;;;4149440;28;20053;-49
2021/11/22 11:42:02;;;;;;;3.45;0.43;;;;;;;;;;4162134;28;20053;-49
2021/11/22 11:44:27;;;;;;;0.90;0.22;;;;;;;;;;4148393;28;20049;-50
2021/11/22 11:47:01;;;;;;;0.60;0.32;;;;;;;;;;4161448;28;20144;-49
2021/11/22 11:49:08;;;;;;;1.02;0.32;;;;;;;;;;4148582;28;20095;-48
2021/11/22 11:51:11;;;;;;;3.28;0.40;;;;;;;;;;4155638;28;20449;-45
2021/11/22 11:53:18;;;;;;;1.98;0.40;;;;;;;;;;4151646;28;20060;-44
2021/11/22 11:55:20;;;;;;;0.95;0.40;;;;;;;;;;4161765;28;20099;-43
2021/11/22 11:57:24;;;;;;;1.85;0.20;;;;;;;;;;4152176;28;20123;-42
2021/11/22 11:59:25;;;;;;;2.33;0.30;;;;;;;;;;4159986;28;20136;-46
2021/11/22 12:01:26;;;;;;;0.77;0.25;;;;;;;;;;4148761;28;20068;-50
2021/11/22 12:03:30;;;;;;;1.25;0.30;;;;;;;;;;4162388;28;20316;-50
2021/11/22 12:05:48;;;;;;;0.85;0.30;;;;;;;;;;4164432;28;20068;-50
2021/11/22 12:07:51;;;;;;;1.73;0.30;;;;;;;;;;4161602;28;20526;-47
2021/11/22 12:10:04;;;;;;;1.35;0.17;;;;;;;;;;4166539;28;20060;-49
2021/11/22 12:12:08;;;;;;;0.63;0.50;;;;;;;;;;4165409;28;20223;-49
2021/11/22 12:14:11;;;;;;;0.25;0.22;;;;;;;;;;4161656;28;20072;-48
2021/11/22 12:16:41;;;;;;;0.90;0.35;;;;;;;;;;4166176;28;20134;-49